Terminal Aerodrome Forecast
Issued by NWS

Home | Current Version | Previous Version | Graphics & Text | Print | Product List | Glossary On
Versions: 1 2 3 4 5 6 7 8 9 10 11 12 13 14 15 16 17 18 19
000
FTUS43 KFGF 142147 AAC
TAFBJI
TAF AMD
KBJI 142147Z 1422/1518 18009KT 6SM BR OVC004
     FM150000 21006KT 2SM BR OVC003
     FM150600 28005KT 4SM BR OVC005
     FM151200 30012KT P6SM -SN OVC005=

USA.gov is the U.S. government's official web portal to all federal, state and local government web resources and services.